Meloria — IBXK — position and weather

sailwx.info

Track history (hours):
 
Tides and Currents Weather Stations Pressure Air Temp Water Temp Dewpoint Dewpoint Depression Visibility Wind Speed Wind Dir Waves Ship Positions

Meloria

Last reported at 2016-Aug-31 07:28 UTC. Time now 2016-Aug-31 07:55 UTC.
Position N 38°13' E 015°16'.

Length 176 m; draft 7.2 m.

Type: Ship (hazmat cat A). MMSI: 247171100.

Date/timePositionNaut miles runAvg speedWind from/ knotsBaromVisibWave heightAir tempDewpointWater temp
2016-Aug-31 07:28N 38°13' E 015°16'0 0.0
2016-Aug-31 06:28N 38°13' E 015°16'0 0.0
2016-Aug-31 05:28N 38°13' E 015°16'0 0.0
2016-Aug-31 04:28N 38°13' E 015°16'0 0.0
2016-Aug-31 03:28N 38°13' E 015°16'0 0.0
2016-Aug-31 02:28N 38°13' E 015°16'0 0.0
2016-Aug-31 01:28N 38°13' E 015°16'0 0.0
2016-Aug-31 00:28N 38°13' E 015°16'0 0.0
2016-Aug-30 23:28N 38°13' E 015°16'0 0.0
2016-Aug-30 22:28N 38°13' E 015°16'0 0.0
2016-Aug-30 21:28N 38°13' E 015°16'0 0.0
2016-Aug-30 20:28N 38°13' E 015°16'0 0.0
2016-Aug-30 19:28N 38°13' E 015°16'0 0.1
2016-Aug-30 18:33N 38°13' E 015°16'1 0.8
2016-Aug-30 17:32N 38°13' E 015°17'0 0.1
2016-Aug-30 16:32N 38°13' E 015°17'0 0.1
2016-Aug-30 15:32N 38°13' E 015°17'0 0.1
2016-Aug-30 14:26N 38°13' E 015°17'0 0.1
2016-Aug-30 13:32N 38°13' E 015°17'0 0.0
2016-Aug-30 12:32N 38°13' E 015°17'0 0.0
2016-Aug-30 11:32N 38°13' E 015°17'0 0.0
2016-Aug-30 10:32N 38°13' E 015°17'0 0.0
2016-Aug-30 09:32N 38°13' E 015°17'0 0.0
2016-Aug-30 08:32N 38°13' E 015°17'0 0.0
2016-Aug-30 07:31N 38°13' E 015°17'0 0.0
2016-Aug-30 06:31N 38°13' E 015°17'0 0.0
2016-Aug-30 05:31N 38°13' E 015°17'0 0.0
2016-Aug-30 04:31N 38°13' E 015°17'0 0.0
2016-Aug-30 03:31N 38°13' E 015°17'0 0.0
2016-Aug-30 02:31N 38°13' E 015°17'0 0.0
2016-Aug-30 01:31N 38°13' E 015°17'0 0.0
2016-Aug-30 00:31N 38°13' E 015°17'0 0.0
2016-Aug-29 23:31N 38°13' E 015°17'0 0.0
2016-Aug-29 22:31N 38°13' E 015°17'0 0.0
2016-Aug-29 21:31N 38°13' E 015°17'0 0.0
2016-Aug-29 20:31N 38°13' E 015°17'0 0.0
2016-Aug-29 19:31N 38°13' E 015°17'0 0.0
2016-Aug-29 18:31N 38°13' E 015°17'0 0.0
2016-Aug-29 17:31N 38°13' E 015°17'0 0.0
2016-Aug-29 16:31N 38°13' E 015°17'0 0.0
2016-Aug-29 15:31N 38°13' E 015°17'0 0.0
2016-Aug-29 14:31N 38°13' E 015°17'0 0.0
2016-Aug-29 13:31N 38°13' E 015°17'0 0.0
2016-Aug-29 12:31N 38°13' E 015°17'0 0.0
2016-Aug-29 11:31N 38°13' E 015°17'0 0.2
2016-Aug-29 10:31N 38°13' E 015°17'0 0.1
2016-Aug-29 09:31N 38°13' E 015°17'0 0.0
2016-Aug-29 08:31N 38°13' E 015°17'0 0.0
2016-Aug-29 07:31N 38°13' E 015°17'0 0.0
2016-Aug-29 06:31N 38°13' E 015°17'0 0.0
2016-Aug-29 05:31N 38°13' E 015°17'0 0.0
2016-Aug-29 04:31N 38°13' E 015°17'0 0.1
2016-Aug-29 03:31N 38°13' E 015°17'0 0.0
2016-Aug-29 02:31N 38°13' E 015°17'0 0.0
2016-Aug-29 01:31N 38°13' E 015°17'0 0.0
2016-Aug-29 00:31N 38°13' E 015°17'0 0.0
2016-Aug-28 23:31N 38°13' E 015°17'0 0.0
2016-Aug-28 22:31N 38°13' E 015°17'0 0.0
2016-Aug-28 21:31N 38°13' E 015°17'6 6.0
2016-Aug-28 20:34N 38°19' E 015°18'1515.0
2016-Aug-28 19:33N 38°34' E 015°19'144 3.0
2016-Aug-26 19:31N 40°50' E 014°18'0 0.0
2016-Aug-26 18:25N 40°50' E 014°18'2 0.1
2016-Aug-24 21:04N 40°48' E 014°20'0 0.1
2016-Aug-24 20:28N 40°48' E 014°20'2 2.7
2016-Aug-24 19:33N 40°46' E 014°18'1313.1
2016-Aug-24 18:33N 40°36' E 014°07'14513.1
2016-Aug-24 07:31N 38°21' E 015°18'8 8.5
2016-Aug-24 06:33N 38°13' E 015°18'1 0.1
2016-Aug-23 17:29N 38°13' E 015°16'0 0.0
2016-Aug-23 16:29N 38°13' E 015°16'0 0.0
2016-Aug-23 15:29N 38°13' E 015°16'0 0.0
2016-Aug-23 14:29N 38°13' E 015°16'0 0.0
2016-Aug-23 13:29N 38°13' E 015°16'0 0.0
2016-Aug-23 12:29N 38°13' E 015°16'0 0.0
2016-Aug-23 11:29N 38°13' E 015°16'0 0.0
2016-Aug-23 10:28N 38°13' E 015°16'0 0.0
2016-Aug-23 09:28N 38°13' E 015°16'0 0.0
2016-Aug-23 08:28N 38°13' E 015°16'0 0.0
2016-Aug-23 07:28N 38°13' E 015°16'0 0.0
2016-Aug-23 06:28N 38°13' E 015°16'0 0.0
2016-Aug-23 05:28N 38°13' E 015°16'0 0.0
2016-Aug-22 18:04N 38°13' E 015°16'0 0.0
2016-Aug-22 17:28N 38°13' E 015°16'0 0.0
2016-Aug-22 16:28N 38°13' E 015°16'0 0.0
2016-Aug-22 15:28N 38°13' E 015°16'0 0.0
2016-Aug-22 14:22N 38°13' E 015°16'0 0.0
2016-Aug-22 13:28N 38°13' E 015°16'0 0.0
2016-Aug-22 12:28N 38°13' E 015°16'0 0.0
2016-Aug-22 11:22N 38°13' E 015°16'0 0.0
2016-Aug-22 10:28N 38°13' E 015°16'0 0.0
2016-Aug-22 09:28N 38°13' E 015°16'0 0.0
2016-Aug-22 08:28N 38°13' E 015°16'0 0.0
2016-Aug-22 07:28N 38°13' E 015°16'0 0.0
2016-Aug-22 06:28N 38°13' E 015°16'0 0.1
2016-Aug-22 05:33N 38°13' E 015°16'1 0.9
2016-Aug-22 04:33N 38°13' E 015°17'0 0.1
2016-Aug-22 03:32N 38°13' E 015°17'0 0.0
2016-Aug-22 02:32N 38°13' E 015°17'0 0.0
2016-Aug-22 01:32N 38°13' E 015°17'0 0.1
2016-Aug-22 00:32N 38°13' E 015°17'0 0.0
2016-Aug-21 23:32N 38°13' E 015°17'0 0.0
2016-Aug-21 22:32N 38°13' E 015°17'0 0.0
2016-Aug-21 21:32N 38°13' E 015°17'0 0.0
2016-Aug-21 20:32N 38°13' E 015°17'0 0.0
2016-Aug-21 19:32N 38°13' E 015°17'0 0.0
2016-Aug-21 18:32N 38°13' E 015°17'0 0.1
2016-Aug-21 17:32N 38°13' E 015°17'0 0.1
2016-Aug-21 16:32N 38°13' E 015°17'0 0.1
2016-Aug-21 15:32N 38°13' E 015°17'0 0.0
2016-Aug-21 14:32N 38°13' E 015°17'0 0.0
2016-Aug-21 13:32N 38°13' E 015°17'0 0.1
2016-Aug-21 12:32N 38°13' E 015°17'0 0.1
2016-Aug-21 11:32N 38°13' E 015°17'0 0.1
2016-Aug-21 10:32N 38°13' E 015°17'7 7.0
2016-Aug-21 09:33N 38°20' E 015°18'1515.0
2016-Aug-21 08:33N 38°35' E 015°19'1514.7
2016-Aug-21 07:33N 38°49' E 015°22'  
Track history (hours):
 
Tides and Currents Weather Stations Pressure Air Temp Water Temp Dewpoint Dewpoint Depression Visibility Wind Speed Wind Dir Waves Ship Positions

Meloria

Last reported at 2016-Aug-31 07:28 UTC. Time now 2016-Aug-31 07:55 UTC.
Position N 38°13' E 015°16'.

Length 176 m; draft 7.2 m.

Type: Ship (hazmat cat A). MMSI: 247171100.

Date/timePositionNaut miles runAvg speedWind from/ knotsBaromVisibWave heightAir tempDewpointWater temp
2016-Aug-31 07:28N 38°13' E 015°16'0 0.0
2016-Aug-31 06:28N 38°13' E 015°16'0 0.0
2016-Aug-31 05:28N 38°13' E 015°16'0 0.0
2016-Aug-31 04:28N 38°13' E 015°16'0 0.0
2016-Aug-31 03:28N 38°13' E 015°16'0 0.0
2016-Aug-31 02:28N 38°13' E 015°16'0 0.0
2016-Aug-31 01:28N 38°13' E 015°16'0 0.0
2016-Aug-31 00:28N 38°13' E 015°16'0 0.0
2016-Aug-30 23:28N 38°13' E 015°16'0 0.0
2016-Aug-30 22:28N 38°13' E 015°16'0 0.0
2016-Aug-30 21:28N 38°13' E 015°16'0 0.0
2016-Aug-30 20:28N 38°13' E 015°16'0 0.0
2016-Aug-30 19:28N 38°13' E 015°16'0 0.1
2016-Aug-30 18:33N 38°13' E 015°16'1 0.8
2016-Aug-30 17:32N 38°13' E 015°17'0 0.1
2016-Aug-30 16:32N 38°13' E 015°17'0 0.1
2016-Aug-30 15:32N 38°13' E 015°17'0 0.1
2016-Aug-30 14:26N 38°13' E 015°17'0 0.1
2016-Aug-30 13:32N 38°13' E 015°17'0 0.0
2016-Aug-30 12:32N 38°13' E 015°17'0 0.0
2016-Aug-30 11:32N 38°13' E 015°17'0 0.0
2016-Aug-30 10:32N 38°13' E 015°17'0 0.0
2016-Aug-30 09:32N 38°13' E 015°17'0 0.0
2016-Aug-30 08:32N 38°13' E 015°17'0 0.0
2016-Aug-30 07:31N 38°13' E 015°17'0 0.0
2016-Aug-30 06:31N 38°13' E 015°17'0 0.0
2016-Aug-30 05:31N 38°13' E 015°17'0 0.0
2016-Aug-30 04:31N 38°13' E 015°17'0 0.0
2016-Aug-30 03:31N 38°13' E 015°17'0 0.0
2016-Aug-30 02:31N 38°13' E 015°17'0 0.0
2016-Aug-30 01:31N 38°13' E 015°17'0 0.0
2016-Aug-30 00:31N 38°13' E 015°17'0 0.0
2016-Aug-29 23:31N 38°13' E 015°17'0 0.0
2016-Aug-29 22:31N 38°13' E 015°17'0 0.0
2016-Aug-29 21:31N 38°13' E 015°17'0 0.0
2016-Aug-29 20:31N 38°13' E 015°17'0 0.0
2016-Aug-29 19:31N 38°13' E 015°17'0 0.0
2016-Aug-29 18:31N 38°13' E 015°17'0 0.0
2016-Aug-29 17:31N 38°13' E 015°17'0 0.0
2016-Aug-29 16:31N 38°13' E 015°17'0 0.0
2016-Aug-29 15:31N 38°13' E 015°17'0 0.0
2016-Aug-29 14:31N 38°13' E 015°17'0 0.0
2016-Aug-29 13:31N 38°13' E 015°17'0 0.0
2016-Aug-29 12:31N 38°13' E 015°17'0 0.0
2016-Aug-29 11:31N 38°13' E 015°17'0 0.2
2016-Aug-29 10:31N 38°13' E 015°17'0 0.1
2016-Aug-29 09:31N 38°13' E 015°17'0 0.0
2016-Aug-29 08:31N 38°13' E 015°17'0 0.0
2016-Aug-29 07:31N 38°13' E 015°17'0 0.0
2016-Aug-29 06:31N 38°13' E 015°17'0 0.0
2016-Aug-29 05:31N 38°13' E 015°17'0 0.0
2016-Aug-29 04:31N 38°13' E 015°17'0 0.1
2016-Aug-29 03:31N 38°13' E 015°17'0 0.0
2016-Aug-29 02:31N 38°13' E 015°17'0 0.0
2016-Aug-29 01:31N 38°13' E 015°17'0 0.0
2016-Aug-29 00:31N 38°13' E 015°17'0 0.0
2016-Aug-28 23:31N 38°13' E 015°17'0 0.0
2016-Aug-28 22:31N 38°13' E 015°17'0 0.0
2016-Aug-28 21:31N 38°13' E 015°17'6 6.0
2016-Aug-28 20:34N 38°19' E 015°18'1515.0
2016-Aug-28 19:33N 38°34' E 015°19'144 3.0
2016-Aug-26 19:31N 40°50' E 014°18'0 0.0
2016-Aug-26 18:25N 40°50' E 014°18'2 0.1
2016-Aug-24 21:04N 40°48' E 014°20'0 0.1
2016-Aug-24 20:28N 40°48' E 014°20'2 2.7
2016-Aug-24 19:33N 40°46' E 014°18'1313.1
2016-Aug-24 18:33N 40°36' E 014°07'14513.1
2016-Aug-24 07:31N 38°21' E 015°18'8 8.5
2016-Aug-24 06:33N 38°13' E 015°18'1 0.1
2016-Aug-23 17:29N 38°13' E 015°16'0 0.0
2016-Aug-23 16:29N 38°13' E 015°16'0 0.0
2016-Aug-23 15:29N 38°13' E 015°16'0 0.0
2016-Aug-23 14:29N 38°13' E 015°16'0 0.0
2016-Aug-23 13:29N 38°13' E 015°16'0 0.0
2016-Aug-23 12:29N 38°13' E 015°16'0 0.0
2016-Aug-23 11:29N 38°13' E 015°16'0 0.0
2016-Aug-23 10:28N 38°13' E 015°16'0 0.0
2016-Aug-23 09:28N 38°13' E 015°16'0 0.0
2016-Aug-23 08:28N 38°13' E 015°16'0 0.0
2016-Aug-23 07:28N 38°13' E 015°16'0 0.0
2016-Aug-23 06:28N 38°13' E 015°16'0 0.0
2016-Aug-23 05:28N 38°13' E 015°16'0 0.0
2016-Aug-22 18:04N 38°13' E 015°16'0 0.0
2016-Aug-22 17:28N 38°13' E 015°16'0 0.0
2016-Aug-22 16:28N 38°13' E 015°16'0 0.0
2016-Aug-22 15:28N 38°13' E 015°16'0 0.0
2016-Aug-22 14:22N 38°13' E 015°16'0 0.0
2016-Aug-22 13:28N 38°13' E 015°16'0 0.0
2016-Aug-22 12:28N 38°13' E 015°16'0 0.0
2016-Aug-22 11:22N 38°13' E 015°16'0 0.0
2016-Aug-22 10:28N 38°13' E 015°16'0 0.0
2016-Aug-22 09:28N 38°13' E 015°16'0 0.0
2016-Aug-22 08:28N 38°13' E 015°16'0 0.0
2016-Aug-22 07:28N 38°13' E 015°16'0 0.0
2016-Aug-22 06:28N 38°13' E 015°16'0 0.1
2016-Aug-22 05:33N 38°13' E 015°16'1 0.9
2016-Aug-22 04:33N 38°13' E 015°17'0 0.1
2016-Aug-22 03:32N 38°13' E 015°17'0 0.0
2016-Aug-22 02:32N 38°13' E 015°17'0 0.0
2016-Aug-22 01:32N 38°13' E 015°17'0 0.1
2016-Aug-22 00:32N 38°13' E 015°17'0 0.0
2016-Aug-21 23:32N 38°13' E 015°17'0 0.0
2016-Aug-21 22:32N 38°13' E 015°17'0 0.0
2016-Aug-21 21:32N 38°13' E 015°17'0 0.0
2016-Aug-21 20:32N 38°13' E 015°17'0 0.0
2016-Aug-21 19:32N 38°13' E 015°17'0 0.0
2016-Aug-21 18:32N 38°13' E 015°17'0 0.1
2016-Aug-21 17:32N 38°13' E 015°17'0 0.1
2016-Aug-21 16:32N 38°13' E 015°17'0 0.1
2016-Aug-21 15:32N 38°13' E 015°17'0 0.0
2016-Aug-21 14:32N 38°13' E 015°17'0 0.0
2016-Aug-21 13:32N 38°13' E 015°17'0 0.1
2016-Aug-21 12:32N 38°13' E 015°17'0 0.1
2016-Aug-21 11:32N 38°13' E 015°17'0 0.1
2016-Aug-21 10:32N 38°13' E 015°17'7 7.0
2016-Aug-21 09:33N 38°20' E 015°18'1515.0
2016-Aug-21 08:33N 38°35' E 015°19'1514.7
2016-Aug-21 07:33N 38°49' E 015°22'  

Dump ship's entire track history